Detall de PIREP

Printer-friendly versionPDF version

[2017/06/10 16:18:00]
Flight IATA:CT1063
Pilot Number:026
Company ICAO:CAT
Aircraft Type:DC85/A
PAX:132
Aircraft Registration:PAX
Departing Airport: LTBA
Destination Airport: LGAV
Alternate Airport:LGPZ
Online: VATSIM
Route:BIG UN604 KEPIR
Flight Level:F320
No Slew and time accel
No pause
Crash detect
Detect pilot in Cockpit between each 30 and 45 minutes
16:18 Zero fuel Weight: 185719 Lbs, Fuel Weight: 24001 Lbs
16:18 VATSIM:LTBA 101750Z 25003KT 9999 SCT040 20/16 Q1016 NOSIG
16:18 VATSIM:LGAV 101750Z 08006KT 060V120 9999 FEW030 22/14 Q1015 NOSIG
16:26 Parking Brakes off
16:45 Take-off
16:45 Take off Weight: 208233 Lbs
16:45 Wind: 230º @ 003 Knots Heading: 179º
16:45 POS N40º 58´ 42´´ E028º 48´ 32´´
16:45 Flaps:2 at 158 Knots
16:45 Gear Up: 165 Knots
16:47 Flaps:1 at 260 Knots
16:48 Flaps:0 at 233 Knots
17:00 Wind:011º@007 Knots Heading: 223º Ground Speed: 413 Knots Altitude 26013 ft
17:05 TOC
17:05 Fuel Weight: 16776 Lb
17:14 TOD
17:14 Fuel Weight: 14998 Lb
17:15 Wind:351º@016 Knots Heading: 236º Ground Speed: 469 Knots Altitude 31315 ft
17:30 Wind:006º@009 Knots Heading: 205º Ground Speed: 382 Knots Altitude 10334 ft
17:36 Flaps:5 at 235 Knots
17:36 Flaps:0 at 228 Knots
17:40 Flaps:1 at 204 Knots
17:41 Flaps:2 at 174 Knots
17:42 Flaps:3 at 170 Knots
17:42 Gear Down: 169 Knots
17:43 Flaps:4 at 160 Knots
17:44 Flaps:5 at 143 Knots
17:45 Wind:358º@003 Knots Heading: 036º Ground Speed: 138 Knots Altitude 1906 ft
17:47 TouchDown:Rate -158 ft/min Speed: 128 Knots
17:47 VATSIM:LGAV 101920Z 36003KT 9999 FEW030 21/14 Q1016 NOSIG
17:47 Land
17:47 Wind:358º@003 Knots
17:47 Heading: 033º
17:47 Flight Duration: 01:02
17:47 Landing Weight: 196643 Lbs
17:47 POS N37º 56´ 13´´ E023º 57´ 22´´
17:52 Parking brakes on
17:52Block to Block Duration: 01:26
17:52 Final Fuel: 10432 Lbls
17:52 Spent Fuel: 13569 Lbls
17:52 Flight Length: 367 NM
17:52 TOD Land Length: 176 NM

Exportar CSV

Powered by Drupal - Modified by Danger4k